Time;durP1;ratioP1;P1;durP2;ratioP2;P2;SDS_P1;SDS_P2;PMS_P1;PMS_P2;Temp;Humidity;BMP_temperature;BMP_pressure;BME280_temperature;BME280_humidity;BME280_pressure;Samples;Min_cycle;Max_cycle;Signal;HPM_P1;HPM_P2
2023/02/14 00:00:54;;;;;;;5.83;3.90;;;8.90;99.90;;;;;;4975123;28;20187;-74
2023/02/14 00:03:20;;;;;;;6.17;4.20;;;8.90;99.90;;;;;;4974305;28;20180;-74
2023/02/14 00:05:45;;;;;;;3.83;3.27;;;8.90;99.90;;;;;;4957880;28;20262;-73
2023/02/14 00:08:11;;;;;;;5.07;4.10;;;8.90;99.90;;;;;;4975097;28;20571;-73
2023/02/14 00:10:37;;;;;;;7.07;4.77;;;8.90;99.90;;;;;;4974267;28;20658;-73
2023/02/14 00:13:03;;;;;;;6.20;3.90;;;8.90;99.90;;;;;;4973695;28;20211;-73
2023/02/14 00:15:29;;;;;;;3.92;3.15;;;8.80;99.90;;;;;;4974096;28;20544;-74
2023/02/14 00:17:58;;;;;;;5.30;3.40;;;8.80;99.90;;;;;;4974850;28;20176;-73
2023/02/14 00:20:25;;;;;;;5.00;3.60;;;8.80;99.90;;;;;;4974025;28;21172;-73
2023/02/14 00:22:51;;;;;;;5.65;4.55;;;8.80;99.90;;;;;;4973443;28;20176;-73
2023/02/14 00:25:18;;;;;;;5.57;4.50;;;8.70;99.90;;;;;;4975038;28;20172;-73
2023/02/14 00:27:43;;;;;;;5.40;3.80;;;8.70;99.90;;;;;;4975003;28;20171;-74
2023/02/14 00:30:11;;;;;;;5.60;3.55;;;8.70;99.90;;;;;;4974677;28;20178;-73
2023/02/14 00:32:38;;;;;;;5.97;4.10;;;8.60;99.90;;;;;;4957697;28;20255;-73
2023/02/14 00:35:05;;;;;;;9.73;4.32;;;8.60;99.90;;;;;;4956839;28;20171;-74
2023/02/14 00:37:31;;;;;;;7.03;4.10;;;8.60;99.90;;;;;;4974769;28;20230;-74
2023/02/14 00:39:57;;;;;;;6.22;4.40;;;8.60;99.90;;;;;;4957258;28;20542;-73
2023/02/14 00:42:22;;;;;;;5.10;4.60;;;8.60;99.90;;;;;;4957522;28;20276;-74
2023/02/14 00:44:48;;;;;;;5.37;3.37;;;8.60;99.90;;;;;;4976060;28;20171;-74
2023/02/14 00:47:14;;;;;;;5.80;4.17;;;8.50;99.90;;;;;;4958832;28;20238;-73
2023/02/14 00:49:40;;;;;;;7.27;4.77;;;8.50;99.90;;;;;;4957892;28;20934;-73
2023/02/14 00:52:05;;;;;;;4.93;4.10;;;8.50;99.90;;;;;;4974499;28;20179;-73
2023/02/14 00:54:31;;;;;;;5.53;4.60;;;8.50;99.90;;;;;;4973724;28;20271;-73
2023/02/14 00:56:58;;;;;;;6.13;4.90;;;8.40;99.90;;;;;;4974099;28;20203;-74
2023/02/14 00:59:24;;;;;;;7.28;4.50;;;8.30;99.90;;;;;;4974620;28;20172;-74
2023/02/14 01:01:49;;;;;;;5.97;4.13;;;8.40;99.90;;;;;;4974027;28;20644;-74
2023/02/14 01:04:15;;;;;;;5.73;4.23;;;8.30;99.90;;;;;;4974450;28;20172;-73
2023/02/14 01:06:41;;;;;;;7.20;5.30;;;8.30;99.90;;;;;;4974272;28;20215;-73
2023/02/14 01:09:07;;;;;;;4.80;4.15;;;8.30;99.90;;;;;;4974283;28;20517;-74
2023/02/14 01:11:33;;;;;;;7.50;5.20;;;8.20;99.90;;;;;;4973102;28;20275;-73
2023/02/14 01:13:59;;;;;;;5.40;4.10;;;8.20;99.90;;;;;;4972589;28;20211;-73
2023/02/14 01:16:26;;;;;;;6.37;3.97;;;8.10;99.90;;;;;;4972902;28;21205;-73
2023/02/14 01:18:54;;;;;;;7.07;4.25;;;8.10;99.90;;;;;;4972518;28;20180;-74
2023/02/14 01:21:25;;;;;;;6.80;4.97;;;8.10;99.90;;;;;;4972920;28;20231;-74
2023/02/14 01:23:53;;;;;;;7.03;4.80;;;8.10;99.90;;;;;;4956304;28;20194;-74
2023/02/14 01:26:20;;;;;;;8.38;4.50;;;8.10;99.90;;;;;;4972718;28;20235;-74
2023/02/14 01:28:46;;;;;;;4.80;3.95;;;8.00;99.90;;;;;;4972749;28;20199;-73
2023/02/14 01:31:18;;;;;;;5.80;4.43;;;8.00;99.90;;;;;;4972376;28;20175;-74
2023/02/14 01:33:45;;;;;;;5.90;4.20;;;8.00;99.90;;;;;;4973758;28;20563;-73
2023/02/14 01:36:27;;;;;;;8.38;5.10;;;8.00;99.90;;;;;;4973343;28;20207;-74
2023/02/14 01:39:01;;;;;;;6.60;5.22;;;8.00;99.90;;;;;;4956435;28;20204;-74
2023/02/14 01:41:30;;;;;;;5.15;3.78;;;7.90;99.90;;;;;;4972282;28;20183;-73
2023/02/14 01:43:58;;;;;;;6.80;4.70;;;7.90;99.90;;;;;;4972989;28;20188;-73
2023/02/14 01:46:26;;;;;;;6.55;5.15;;;7.90;99.90;;;;;;4974119;28;20592;-73
2023/02/14 01:48:58;;;;;;;6.13;4.38;;;7.90;99.90;;;;;;4956549;28;20176;-74
2023/02/14 01:51:23;;;;;;;5.50;4.05;;;7.80;99.90;;;;;;4972444;28;20179;-73
2023/02/14 01:53:51;;;;;;;7.20;3.70;;;7.80;99.90;;;;;;4972205;28;20172;-73
2023/02/14 01:56:24;;;;;;;7.38;5.55;;;7.80;99.90;;;;;;4973475;28;20231;-74
2023/02/14 01:58:52;;;;;;;5.97;4.68;;;7.80;99.90;;;;;;4971812;28;20188;-73
2023/02/14 02:01:19;;;;;;;5.85;4.55;;;7.80;99.90;;;;;;4973320;28;20175;-74
2023/02/14 02:03:54;;;;;;;7.60;5.03;;;7.80;99.90;;;;;;4955018;28;20183;-74
2023/02/14 02:06:32;;;;;;;8.05;4.90;;;7.80;99.90;;;;;;4973013;28;20653;-73
2023/02/14 02:09:36;;;;;;;5.55;4.20;;;7.70;99.90;;;;;;4971482;28;20585;-73
2023/02/14 02:12:02;;;;;;;4.40;3.60;;;7.70;99.90;;;;;;4881327;29;20260;-73
2023/02/14 02:14:28;;;;;;;6.38;5.55;;;7.70;99.90;;;;;;4929093;28;20180;-72
2023/02/14 02:17:19;;;;;;;6.00;3.75;;;7.70;99.90;;;;;;4971791;28;20199;-72
2023/02/14 02:20:06;;;;;;;5.93;4.32;;;7.60;99.90;;;;;;4955497;28;20183;-73
2023/02/14 02:23:15;;;;;;;5.78;4.43;;;7.60;99.90;;;;;;4955786;28;20199;-73
2023/02/14 02:25:57;;;;;;;5.05;4.07;;;7.60;99.90;;;;;;4948890;28;20306;-73
2023/02/14 02:28:47;;;;;;;5.53;4.68;;;7.60;99.90;;;;;;4945289;28;20243;-74
2023/02/14 02:31:31;;;;;;;7.32;5.90;;;7.60;99.90;;;;;;4950397;28;20180;-74
2023/02/14 02:34:35;;;;;;;7.00;5.13;;;7.50;99.90;;;;;;4951743;28;20164;-74
2023/02/14 02:37:20;;;;;;;6.05;4.72;;;7.50;99.90;;;;;;4951150;28;20195;-74
2023/02/14 02:39:58;;;;;;;7.00;5.38;;;7.40;99.90;;;;;;4935548;28;20277;-74
2023/02/14 02:42:29;;;;;;;6.85;4.65;;;7.40;99.90;;;;;;4934615;29;20176;-74
2023/02/14 02:45:10;;;;;;;8.15;5.28;;;7.40;99.90;;;;;;4956952;28;20242;-75
2023/02/14 02:48:11;;;;;;;7.63;5.65;;;7.40;99.90;;;;;;4954141;28;20295;-74
2023/02/14 02:53:50;;;;;;;9.05;5.43;;;7.30;99.90;;;;;;4971661;28;20168;-75
2023/02/14 02:56:44;;;;;;;6.70;4.85;;;7.30;99.90;;;;;;4957252;28;20229;-74
2023/02/14 02:59:30;;;;;;;6.57;5.15;;;7.30;99.90;;;;;;4989570;28;20183;-74
2023/02/14 03:02:05;;;;;;;6.55;5.60;;;7.20;99.90;;;;;;4973885;28;20667;-74
2023/02/14 03:04:52;;;;;;;9.23;7.05;;;7.20;99.90;;;;;;4989833;28;20178;-74
2023/02/14 03:07:39;;;;;;;7.10;5.55;;;7.10;99.90;;;;;;4973907;28;20210;-75
2023/02/14 03:10:06;;;;;;;7.43;5.32;;;7.10;99.90;;;;;;4973183;28;20555;-74
2023/02/14 03:12:32;;;;;;;5.53;4.75;;;7.10;99.90;;;;;;4956867;28;20175;-75
2023/02/14 03:15:21;;;;;;;10.00;7.13;;;7.10;99.90;;;;;;4973867;28;20175;-75
2023/02/14 03:18:12;;;;;;;7.18;5.18;;;7.10;99.90;;;;;;4991895;28;20238;-75
2023/02/14 03:20:48;;;;;;;8.23;7.03;;;7.00;99.90;;;;;;4969159;28;20229;-75
2023/02/14 03:23:20;;;;;;;8.30;6.10;;;7.00;99.90;;;;;;4976650;28;20467;-75
2023/02/14 03:26:21;;;;;;;6.22;5.40;;;7.00;99.90;;;;;;4995001;28;20206;-74
2023/02/14 03:28:59;;;;;;;7.43;5.28;;;7.00;99.90;;;;;;4974975;28;20214;-74
2023/02/14 03:31:35;;;;;;;7.25;5.43;;;6.90;99.90;;;;;;4994265;28;20637;-74
2023/02/14 03:34:14;;;;;;;7.38;5.28;;;6.80;99.90;;;;;;4977087;28;20557;-74
2023/02/14 03:36:51;;;;;;;7.65;5.57;;;6.80;99.90;;;;;;4977308;28;20198;-74
2023/02/14 03:39:35;;;;;;;7.75;5.50;;;6.80;99.90;;;;;;4993956;28;20179;-74
2023/02/14 03:42:16;;;;;;;9.18;5.55;;;6.80;99.90;;;;;;4976615;28;20206;-73
2023/02/14 03:44:43;;;;;;;8.80;5.85;;;6.70;99.90;;;;;;4976720;28;20197;-73
2023/02/14 03:47:16;;;;;;;8.57;6.68;;;6.70;99.90;;;;;;4976970;28;20233;-74
2023/02/14 03:49:47;;;;;;;8.23;6.18;;;6.70;99.90;;;;;;4992922;28;20225;-73
2023/02/14 03:52:14;;;;;;;9.27;6.03;;;6.70;99.90;;;;;;4959833;28;20174;-73
2023/02/14 03:54:41;;;;;;;8.15;6.28;;;6.70;99.90;;;;;;4994130;28;20233;-73
2023/02/14 03:57:13;;;;;;;10.07;6.00;;;6.70;99.90;;;;;;4944678;28;20302;-73
2023/02/14 03:59:40;;;;;;;8.98;6.45;;;6.70;99.90;;;;;;4994030;28;20175;-74
2023/02/14 04:02:30;;;;;;;10.65;6.50;;;6.70;99.90;;;;;;4993038;28;20206;-73
2023/02/14 04:04:58;;;;;;;9.02;7.18;;;6.60;99.90;;;;;;4976827;28;20198;-73
2023/02/14 04:07:24;;;;;;;9.85;6.35;;;6.60;99.90;;;;;;4993543;28;20673;-73
2023/02/14 04:09:50;;;;;;;10.27;8.07;;;6.60;99.90;;;;;;4992989;28;20214;-73
2023/02/14 04:12:17;;;;;;;8.73;7.13;;;6.60;99.90;;;;;;4992832;28;20565;-73
2023/02/14 04:14:43;;;;;;;9.38;6.60;;;6.60;99.90;;;;;;4992874;28;21575;-74
2023/02/14 04:19:53;;;;;;;9.45;7.80;;;6.60;99.90;;;;;;4964174;28;20591;-74
2023/02/14 04:22:19;;;;;;;9.80;7.40;;;6.50;99.90;;;;;;4971754;28;20180;-74
2023/02/14 04:24:45;;;;;;;8.23;6.53;;;6.50;99.90;;;;;;4957104;28;20270;-74
2023/02/14 04:27:11;;;;;;;8.63;6.40;;;6.50;99.90;;;;;;4956928;28;20219;-74
2023/02/14 04:29:41;;;;;;;10.38;8.23;;;6.50;99.90;;;;;;4973165;28;20176;-74
2023/02/14 04:32:09;;;;;;;8.73;7.28;;;6.50;99.90;;;;;;4940241;28;20192;-74
2023/02/14 04:34:35;;;;;;;13.55;8.30;;;6.50;99.90;;;;;;4956546;28;20171;-73
2023/02/14 04:37:02;;;;;;;10.60;8.90;;;6.50;99.90;;;;;;4974018;28;20222;-74
2023/02/14 04:39:28;;;;;;;11.25;7.85;;;6.50;99.90;;;;;;4973468;28;20948;-74
2023/02/14 04:41:53;;;;;;;10.23;7.97;;;6.40;99.90;;;;;;4973604;28;20211;-74
2023/02/14 04:44:19;;;;;;;9.17;8.07;;;6.40;99.90;;;;;;4973790;28;20179;-74
2023/02/14 04:46:45;;;;;;;9.50;7.67;;;6.40;99.90;;;;;;4956435;28;20211;-73
2023/02/14 04:49:10;;;;;;;15.07;9.47;;;6.40;99.90;;;;;;4972740;28;20238;-73
2023/02/14 04:51:36;;;;;;;14.00;10.67;;;6.40;99.90;;;;;;4974846;28;20182;-73
2023/02/14 04:54:02;;;;;;;8.33;7.30;;;6.40;99.90;;;;;;4987710;28;20179;-73
2023/02/14 04:56:27;;;;;;;11.73;8.97;;;6.40;99.90;;;;;;4991667;28;20206;-73
2023/02/14 04:58:54;;;;;;;11.63;8.10;;;6.40;99.90;;;;;;4993156;28;20586;-73
2023/02/14 05:01:22;;;;;;;12.65;9.98;;;6.40;99.90;;;;;;4991711;28;20178;-73
2023/02/14 05:03:48;;;;;;;14.10;10.27;;;6.40;99.90;;;;;;4976657;28;20179;-74
2023/02/14 05:06:14;;;;;;;11.87;8.57;;;6.40;99.90;;;;;;4993520;28;20215;-74
2023/02/14 05:08:39;;;;;;;11.60;8.50;;;6.40;99.90;;;;;;4992515;28;20594;-74
2023/02/14 05:11:05;;;;;;;10.97;9.77;;;6.40;99.90;;;;;;4991948;28;20171;-74
2023/02/14 05:13:31;;;;;;;14.23;10.33;;;6.40;99.90;;;;;;4973306;28;20172;-74
2023/02/14 05:15:57;;;;;;;13.47;10.87;;;6.40;99.90;;;;;;4957391;28;20650;-74
2023/02/14 05:18:23;;;;;;;13.87;10.70;;;6.40;99.90;;;;;;4956683;28;20244;-74
2023/02/14 05:20:53;;;;;;;11.10;9.20;;;6.40;99.90;;;;;;4974537;28;20586;-74
2023/02/14 05:23:20;;;;;;;15.23;11.27;;;6.30;99.90;;;;;;4956736;28;20250;-73
2023/02/14 05:25:50;;;;;;;12.32;9.75;;;6.30;99.90;;;;;;4973888;28;20284;-73
2023/02/14 05:28:18;;;;;;;10.75;9.10;;;6.30;99.90;;;;;;4973856;28;20172;-74
2023/02/14 05:30:44;;;;;;;11.60;9.40;;;6.30;99.90;;;;;;4990662;23;20174;-76
2023/02/14 05:33:09;;;;;;;14.80;10.80;;;6.30;99.90;;;;;;5002454;28;20183;-76
2023/02/14 05:35:35;;;;;;;11.70;8.67;;;6.20;99.90;;;;;;5011371;28;20617;-76
2023/02/14 05:38:02;;;;;;;12.85;9.57;;;6.20;99.90;;;;;;5002321;28;20257;-76
2023/02/14 05:40:27;;;;;;;13.17;9.93;;;6.20;99.90;;;;;;5009892;28;20693;-76
2023/02/14 05:42:54;;;;;;;17.37;10.47;;;6.20;99.90;;;;;;5002940;28;20608;-76
2023/02/14 05:45:21;;;;;;;13.98;9.85;;;6.10;99.90;;;;;;5002452;28;20588;-76
2023/02/14 05:47:47;;;;;;;13.27;11.32;;;6.10;99.90;;;;;;5027178;28;20205;-76
2023/02/14 05:50:14;;;;;;;15.32;10.63;;;6.10;99.90;;;;;;5011730;28;20565;-76
2023/02/14 05:52:39;;;;;;;17.00;10.90;;;6.10;99.90;;;;;;5010683;28;20183;-76
2023/02/14 05:55:06;;;;;;;15.20;12.23;;;6.10;99.90;;;;;;5010707;28;20665;-76
2023/02/14 05:57:31;;;;;;;13.98;10.68;;;6.10;99.90;;;;;;5010020;28;20182;-76
2023/02/14 05:59:57;;;;;;;15.40;9.70;;;6.10;99.90;;;;;;4994283;28;20177;-75
2023/02/14 06:02:23;;;;;;;13.10;10.10;;;6.10;99.90;;;;;;4992817;28;21142;-76
2023/02/14 06:04:48;;;;;;;17.77;12.30;;;6.10;99.90;;;;;;5010465;28;20175;-75
2023/02/14 06:07:14;;;;;;;19.33;14.63;;;6.10;99.90;;;;;;5010579;28;20210;-76
2023/02/14 06:09:40;;;;;;;18.93;12.70;;;6.10;99.90;;;;;;5005668;28;20174;-76
2023/02/14 06:12:06;;;;;;;21.13;14.37;;;6.10;99.90;;;;;;5013297;28;20190;-75
2023/02/14 06:14:32;;;;;;;19.77;12.15;;;6.10;99.90;;;;;;4977614;28;20245;-75
2023/02/14 06:16:57;;;;;;;17.20;12.00;;;6.10;99.90;;;;;;5011828;28;20563;-75
2023/02/14 06:19:23;;;;;;;21.40;13.87;;;6.10;99.90;;;;;;5002300;28;20654;-76
2023/02/14 06:21:49;;;;;;;21.63;15.70;;;6.10;99.90;;;;;;4991313;28;20219;-75
2023/02/14 06:24:14;;;;;;;19.93;13.50;;;6.10;99.90;;;;;;4991501;28;20193;-75
2023/02/14 06:26:40;;;;;;;16.93;12.43;;;6.10;99.90;;;;;;4974276;28;20213;-75
2023/02/14 06:29:06;;;;;;;16.50;12.00;;;6.10;99.90;;;;;;4991816;28;20190;-75
2023/02/14 06:31:31;;;;;;;21.23;13.87;;;6.10;99.90;;;;;;4990433;28;20221;-75
2023/02/14 06:33:57;;;;;;;19.20;13.10;;;6.00;99.90;;;;;;4990454;28;20179;-75
2023/02/14 06:36:24;;;;;;;21.20;15.10;;;6.10;99.90;;;;;;4991370;28;20631;-74
2023/02/14 06:38:50;;;;;;;21.17;15.95;;;6.00;99.90;;;;;;5006923;28;21285;-74
2023/02/14 06:41:16;;;;;;;23.97;17.00;;;6.00;99.90;;;;;;4990248;28;20285;-75
2023/02/14 06:43:43;;;;;;;15.82;12.18;;;6.00;99.90;;;;;;4975523;28;20183;-74
2023/02/14 06:46:09;;;;;;;17.88;11.43;;;6.10;99.90;;;;;;4990688;28;20194;-75
2023/02/14 06:48:35;;;;;;;20.45;14.82;;;6.10;99.90;;;;;;4993039;28;20627;-74
2023/02/14 06:51:02;;;;;;;22.87;15.77;;;6.10;99.90;;;;;;4992795;28;20253;-75
2023/02/14 06:53:28;;;;;;;25.60;17.52;;;6.10;99.90;;;;;;4995923;28;20586;-75
2023/02/14 06:55:53;;;;;;;23.63;16.70;;;6.00;99.90;;;;;;4994560;28;20190;-77
2023/02/14 06:58:19;;;;;;;19.37;14.43;;;6.10;99.90;;;;;;4994124;28;20230;-76
2023/02/14 07:00:46;;;;;;;22.73;13.60;;;6.10;99.90;;;;;;4993877;28;20671;-75
2023/02/14 07:03:12;;;;;;;19.83;13.38;;;6.10;99.90;;;;;;5017738;28;20179;-76
2023/02/14 07:05:38;;;;;;;19.13;13.90;;;6.10;99.90;;;;;;5006923;28;20178;-75
2023/02/14 07:08:06;;;;;;;30.05;18.45;;;6.10;99.90;;;;;;4997311;28;20728;-76
2023/02/14 07:10:32;;;;;;;25.58;15.57;;;6.10;99.90;;;;;;5013012;28;20697;-76
2023/02/14 07:12:59;;;;;;;22.25;16.23;;;6.10;99.90;;;;;;5012987;28;20224;-75
2023/02/14 07:15:25;;;;;;;27.17;16.67;;;6.20;99.90;;;;;;5013612;28;20182;-75
2023/02/14 07:17:50;;;;;;;22.50;15.60;;;6.20;99.90;;;;;;5016947;28;20254;-75
2023/02/14 07:20:17;;;;;;;20.67;15.10;;;6.20;99.90;;;;;;4998158;28;20644;-76
2023/02/14 07:22:43;;;;;;;29.15;17.58;;;6.20;99.90;;;;;;4993514;28;20618;-76
2023/02/14 07:25:09;;;;;;;30.00;17.05;;;6.20;99.90;;;;;;4995297;28;20218;-76
2023/02/14 07:27:35;;;;;;;17.35;13.63;;;6.20;99.90;;;;;;4977669;28;20313;-75
2023/02/14 07:30:03;;;;;;;22.25;15.32;;;6.30;99.90;;;;;;4994947;28;20578;-76
2023/02/14 07:32:29;;;;;;;27.30;17.95;;;6.30;99.90;;;;;;4993621;28;20203;-76
2023/02/14 07:34:55;;;;;;;25.60;15.73;;;6.30;99.90;;;;;;4993428;28;20241;-77
2023/02/14 07:37:20;;;;;;;23.87;16.70;;;6.30;99.90;;;;;;4994636;28;20977;-76
2023/02/14 07:39:46;;;;;;;22.43;15.37;;;6.30;99.90;;;;;;4993404;28;20912;-76
2023/02/14 07:42:12;;;;;;;21.30;14.20;;;6.30;99.90;;;;;;5008636;28;21159;-76
2023/02/14 07:44:38;;;;;;;22.67;13.70;;;6.30;99.90;;;;;;4995096;28;21256;-76
2023/02/14 07:47:08;;;;;;;24.45;14.00;;;6.40;99.90;;;;;;4993767;28;20672;-76
2023/02/14 07:49:35;;;;;;;23.00;13.85;;;6.40;99.90;;;;;;4993461;28;20211;-77
2023/02/14 07:52:01;;;;;;;21.63;14.27;;;6.40;99.90;;;;;;4992634;28;20748;-76
2023/02/14 07:54:27;;;;;;;19.58;13.40;;;6.50;99.90;;;;;;4994235;28;20175;-77
2023/02/14 07:56:52;;;;;;;22.73;15.30;;;6.50;99.90;;;;;;4993509;28;20639;-76
2023/02/14 07:59:18;;;;;;;20.70;14.43;;;6.60;99.90;;;;;;4992901;28;20179;-77
2023/02/14 08:01:44;;;;;;;23.57;16.57;;;6.60;99.90;;;;;;5007798;28;20214;-77
2023/02/14 08:04:12;;;;;;;19.43;14.63;;;6.60;99.90;;;;;;5005770;28;20603;-77
2023/02/14 08:06:39;;;;;;;17.10;13.80;;;6.60;99.90;;;;;;4982788;28;20285;-77
2023/02/14 08:09:05;;;;;;;22.38;17.15;;;6.60;99.90;;;;;;5001333;28;20175;-75
2023/02/14 08:14:15;;;;;;;20.65;15.45;;;6.70;99.90;;;;;;5001325;28;20253;-76
2023/02/14 08:16:41;;;;;;;19.37;14.07;;;6.70;99.90;;;;;;5005320;28;20624;-76
2023/02/14 08:19:07;;;;;;;20.40;14.60;;;6.80;99.90;;;;;;4995454;28;20610;-76
2023/02/14 08:21:33;;;;;;;20.10;14.90;;;6.80;99.90;;;;;;4996735;28;20230;-76
2023/02/14 08:23:59;;;;;;;18.70;13.63;;;6.90;99.90;;;;;;4992731;28;21347;-77
2023/02/14 08:26:25;;;;;;;21.50;14.97;;;7.00;99.90;;;;;;4993519;28;20647;-76
2023/02/14 08:28:51;;;;;;;18.50;13.70;;;7.10;99.90;;;;;;4992542;28;20613;-77
2023/02/14 08:31:28;;;;;;;19.33;13.88;;;7.20;99.90;;;;;;4994505;28;20225;-77
2023/02/14 08:33:54;;;;;;;23.15;13.98;;;7.20;99.90;;;;;;5003526;28;20190;-77
2023/02/14 08:36:20;;;;;;;20.33;13.95;;;7.40;99.90;;;;;;5005369;28;20182;-76
2023/02/14 08:38:46;;;;;;;28.00;16.67;;;7.50;99.90;;;;;;5003342;28;20187;-77
2023/02/14 08:41:16;;;;;;;17.05;12.02;;;7.60;99.90;;;;;;4992482;28;20611;-77
2023/02/14 08:43:43;;;;;;;18.88;14.07;;;7.60;99.90;;;;;;4991908;28;20198;-76
2023/02/14 08:46:11;;;;;;;19.10;14.80;;;7.80;99.90;;;;;;4993868;28;20314;-76
2023/02/14 08:48:37;;;;;;;22.67;16.67;;;7.80;99.90;;;;;;5005870;28;20533;-76
2023/02/14 08:51:07;;;;;;;16.33;12.60;;;7.90;99.90;;;;;;4992252;28;20604;-77
2023/02/14 08:53:33;;;;;;;18.17;13.55;;;8.00;99.90;;;;;;4998048;28;20186;-77
2023/02/14 08:56:04;;;;;;;19.48;14.48;;;8.10;99.90;;;;;;5000863;28;20244;-77
2023/02/14 08:58:30;;;;;;;20.33;16.73;;;8.20;99.90;;;;;;5006725;28;20175;-76
2023/02/14 09:00:56;;;;;;;20.98;15.52;;;8.30;99.90;;;;;;5010853;28;20242;-77
2023/02/14 09:03:21;;;;;;;18.43;13.47;;;8.50;99.90;;;;;;5003419;28;20309;-76
2023/02/14 09:05:47;;;;;;;16.90;13.37;;;9.00;99.90;;;;;;5012263;28;20648;-77
2023/02/14 09:08:13;;;;;;;20.87;15.13;;;9.70;99.90;;;;;;5005464;28;20635;-77
2023/02/14 09:10:38;;;;;;;22.10;16.50;;;10.60;99.90;;;;;;4998597;28;20179;-77
2023/02/14 09:13:04;;;;;;;18.87;15.43;;;11.30;99.90;;;;;;4999911;28;20310;-77
2023/02/14 09:15:30;;;;;;;19.57;14.70;;;12.10;99.90;;;;;;5007595;28;20168;-77
2023/02/14 09:17:56;;;;;;;19.27;13.80;;;12.90;99.90;;;;;;4996567;28;20601;-77
2023/02/14 09:20:22;;;;;;;16.63;14.87;;;13.60;99.90;;;;;;4975927;28;20188;-77
2023/02/14 09:22:48;;;;;;;19.60;15.83;;;14.20;99.90;;;;;;4972631;28;20602;-77
2023/02/14 09:25:14;;;;;;;21.30;15.63;;;14.90;99.90;;;;;;4973658;28;20681;-77
2023/02/14 09:27:40;;;;;;;16.17;13.97;;;15.40;99.90;;;;;;4972329;28;20778;-77
2023/02/14 09:30:08;;;;;;;15.23;12.73;;;15.80;99.90;;;;;;4983592;28;20586;-77
2023/02/14 09:32:34;;;;;;;20.60;15.83;;;16.50;99.90;;;;;;4998997;28;20687;-78
2023/02/14 09:40:32;;;;;;;17.07;15.37;;;17.50;99.90;;;;;;5007603;28;20581;-77
2023/02/14 09:43:07;;;;;;;14.60;13.20;;;17.90;99.90;;;;;;5002438;28;21008;-77
2023/02/14 09:45:33;;;;;;;16.37;13.67;;;18.10;99.90;;;;;;5010737;28;20605;-77
2023/02/14 09:48:07;;;;;;;16.50;14.70;;;18.20;99.90;;;;;;5011682;28;20636;-77
2023/02/14 09:50:47;;;;;;;15.33;12.17;;;18.30;99.90;;;;;;5010716;28;20597;-77
2023/02/14 09:53:25;;;;;;;13.73;11.97;;;18.40;99.90;;;;;;5005475;28;20675;-77
2023/02/14 09:56:01;;;;;;;16.60;13.20;;;18.50;99.90;;;;;;5012144;28;20635;-77
2023/02/14 09:59:03;;;;;;;15.13;13.53;;;18.60;99.90;;;;;;5010350;28;20971;-77
2023/02/14 10:01:39;;;;;;;14.73;11.90;;;18.80;94.30;;;;;;4996396;28;21100;-77
2023/02/14 10:04:22;;;;;;;14.03;12.63;;;19.00;97.70;;;;;;5011876;28;20805;-77
2023/02/14 10:06:56;;;;;;;15.03;13.10;;;19.10;98.60;;;;;;5010236;28;20648;-76
2023/02/14 10:10:04;;;;;;;13.57;10.43;;;19.40;96.10;;;;;;5009639;28;21136;-76
2023/02/14 10:12:36;;;;;;;17.73;13.80;;;19.40;92.80;;;;;;5025694;28;20623;-77
2023/02/14 10:15:14;;;;;;;14.73;13.17;;;19.50;91.20;;;;;;4993840;28;20606;-77
2023/02/14 10:17:48;;;;;;;14.77;11.80;;;19.50;94.90;;;;;;5000394;28;20606;-79
2023/02/14 10:20:24;;;;;;;17.37;11.93;;;19.60;91.40;;;;;;4991556;28;20606;-82
2023/02/14 10:23:21;;;;;;;15.23;12.73;;;19.60;94.60;;;;;;4997989;28;20601;-81
2023/02/14 10:26:03;;;;;;;16.57;12.00;;;19.70;94.60;;;;;;4925242;28;20598;-82
2023/02/14 10:28:55;;;;;;;12.83;10.63;;;19.70;93.60;;;;;;4988830;28;20617;-82
2023/02/14 10:31:39;;;;;;;14.57;13.00;;;19.80;95.50;;;;;;4990436;28;20634;-82
2023/02/14 10:34:05;;;;;;;10.70;9.57;;;19.60;90.80;;;;;;4994322;28;20578;-82
2023/02/14 10:36:42;;;;;;;15.90;14.00;;;19.60;94.10;;;;;;5001040;28;20633;-82
2023/02/14 10:39:39;;;;;;;14.07;12.20;;;19.40;86.20;;;;;;4992904;28;20272;-82
2023/02/14 10:42:29;;;;;;;14.50;13.03;;;19.20;91.70;;;;;;5000182;28;21024;-83
2023/02/14 10:45:01;;;;;;;12.77;11.47;;;18.90;91.20;;;;;;4997847;28;20582;-81
2023/02/14 10:48:16;;;;;;;14.57;12.90;;;19.00;92.10;;;;;;5010761;28;20663;-82
2023/02/14 10:51:05;;;;;;;15.33;11.83;;;18.90;92.50;;;;;;5006286;28;20982;-81
2023/02/14 10:53:47;;;;;;;13.13;11.63;;;19.00;92.20;;;;;;5009386;28;20573;-81
2023/02/14 10:56:43;;;;;;;12.30;11.00;;;19.00;92.10;;;;;;5009755;28;21228;-82
2023/02/14 10:59:41;;;;;;;11.00;9.90;;;19.00;92.10;;;;;;5009022;28;20946;-82
2023/02/14 11:02:13;;;;;;;14.03;11.67;;;19.10;91.90;;;;;;5009393;28;20648;-82
2023/02/14 11:04:40;;;;;;;12.80;10.80;;;19.20;87.80;;;;;;5011021;28;20584;-82
2023/02/14 11:07:18;;;;;;;12.97;11.70;;;19.20;91.60;;;;;;4994946;28;20992;-82
2023/02/14 11:09:44;;;;;;;13.33;12.03;;;19.10;89.70;;;;;;5024555;28;20633;-82
2023/02/14 11:12:10;;;;;;;11.97;10.60;;;18.90;87.30;;;;;;4990674;28;20691;-83
2023/02/14 11:14:38;;;;;;;11.80;10.50;;;18.80;90.10;;;;;;4996041;28;20743;-82
2023/02/14 11:17:28;;;;;;;14.77;12.60;;;18.80;90.50;;;;;;5002207;28;20731;-82
2023/02/14 11:20:01;;;;;;;15.33;11.87;;;18.60;81.00;;;;;;4998193;28;20590;-82
2023/02/14 11:22:34;;;;;;;14.97;11.60;;;18.40;85.40;;;;;;4990607;28;20598;-82
2023/02/14 11:25:21;;;;;;;20.10;12.70;;;18.40;88.70;;;;;;4973958;28;20590;-82
2023/02/14 11:27:56;;;;;;;11.17;9.97;;;18.30;84.20;;;;;;4974184;28;21508;-81
2023/02/14 11:30:37;;;;;;;14.60;13.00;;;18.40;88.90;;;;;;4990213;28;20586;-81
2023/02/14 11:33:04;;;;;;;12.40;10.53;;;18.10;84.30;;;;;;4990616;28;20579;-82
2023/02/14 11:35:35;;;;;;;12.17;10.00;;;18.00;87.80;;;;;;4973821;28;20566;-81
2023/02/14 11:38:04;;;;;;;14.07;12.57;;;17.80;89.10;;;;;;4997563;28;20946;-80
2023/02/14 11:40:33;;;;;;;15.97;12.13;;;17.40;85.60;;;;;;5000081;28;20614;-81
2023/02/14 11:43:20;;;;;;;14.03;12.30;;;17.00;85.30;;;;;;5001758;28;20665;-80
2023/02/14 11:45:47;;;;;;;13.27;11.27;;;16.50;84.30;;;;;;5010088;28;20639;-81
2023/02/14 11:48:25;;;;;;;14.03;11.13;;;16.20;85.90;;;;;;5012545;28;20585;-81
2023/02/14 11:51:12;;;;;;;13.53;10.73;;;15.80;86.00;;;;;;5014841;28;20604;-81
2023/02/14 11:53:51;;;;;;;14.20;12.27;;;15.40;87.50;;;;;;5013047;28;20612;-81
2023/02/14 11:56:19;;;;;;;15.77;12.80;;;15.20;87.50;;;;;;4973530;28;20696;-80
2023/02/14 11:59:01;;;;;;;18.30;13.07;;;15.00;88.50;;;;;;5006040;28;21176;-81
2023/02/14 12:01:31;;;;;;;15.07;11.77;;;14.90;88.90;;;;;;4995221;28;20620;-82
2023/02/14 12:04:05;;;;;;;14.57;12.50;;;14.60;89.60;;;;;;4994857;28;20582;-81
2023/02/14 12:06:33;;;;;;;15.67;10.83;;;14.40;90.10;;;;;;4993852;28;20677;-80
2023/02/14 12:09:21;;;;;;;14.82;12.23;;;14.20;90.50;;;;;;4995047;28;21043;-80
2023/02/14 12:11:58;;;;;;;16.47;10.97;;;14.10;90.80;;;;;;4975909;28;20226;-82
2023/02/14 12:14:34;;;;;;;15.73;12.80;;;14.00;91.20;;;;;;4993628;28;20570;-81
2023/02/14 12:17:22;;;;;;;13.45;9.80;;;13.90;91.50;;;;;;5009100;28;20588;-80
2023/02/14 12:20:06;;;;;;;16.17;11.67;;;13.90;91.80;;;;;;4976599;28;20175;-80
2023/02/14 12:22:40;;;;;;;12.30;9.60;;;13.80;92.00;;;;;;4996764;28;20618;-81
2023/02/14 12:25:21;;;;;;;11.80;10.55;;;13.80;92.40;;;;;;5010150;28;20214;-80
2023/02/14 12:28:02;;;;;;;13.45;10.55;;;13.80;92.60;;;;;;4992982;28;20206;-80
2023/02/14 12:30:32;;;;;;;11.40;10.02;;;13.80;92.80;;;;;;4993387;28;20179;-80
2023/02/14 12:33:18;;;;;;;12.38;9.43;;;13.80;93.00;;;;;;4993001;28;20634;-79
2023/02/14 12:36:15;;;;;;;12.50;10.60;;;13.70;93.20;;;;;;4994541;28;20254;-80
2023/02/14 12:38:49;;;;;;;12.10;10.60;;;13.70;93.20;;;;;;4993468;28;20178;-80
2023/02/14 12:42:06;;;;;;;14.02;10.90;;;13.70;93.40;;;;;;4991490;28;20212;-80
2023/02/14 12:44:32;;;;;;;14.43;11.68;;;13.60;93.80;;;;;;4966817;28;20626;-81
2023/02/14 12:47:10;;;;;;;15.00;11.47;;;13.60;93.70;;;;;;5013560;28;20218;-80
2023/02/14 12:49:48;;;;;;;12.90;10.95;;;13.50;93.80;;;;;;5011663;28;20182;-81
2023/02/14 12:52:58;;;;;;;14.50;10.45;;;13.50;93.90;;;;;;4985988;28;20194;-80
2023/02/14 12:55:39;;;;;;;11.37;9.87;;;13.50;94.10;;;;;;5016436;28;20635;-80
2023/02/14 12:58:28;;;;;;;15.70;9.93;;;13.60;94.40;;;;;;5023521;28;21152;-80
2023/02/14 13:01:02;;;;;;;13.70;9.23;;;13.60;94.50;;;;;;4976044;28;20635;-80
2023/02/14 13:04:06;;;;;;;14.07;10.90;;;13.70;94.80;;;;;;4998689;28;20174;-79
2023/02/14 13:06:38;;;;;;;15.40;10.63;;;13.60;94.60;;;;;;4975539;28;20228;-80
2023/02/14 13:09:22;;;;;;;13.93;10.67;;;13.70;95.00;;;;;;5012475;28;20585;-80
2023/02/14 13:12:14;;;;;;;20.33;12.37;;;13.70;94.80;;;;;;4998084;28;20641;-80
2023/02/14 13:15:00;;;;;;;11.90;9.63;;;13.70;94.90;;;;;;4984361;28;21156;-79
2023/02/14 13:17:42;;;;;;;13.97;11.67;;;13.70;95.20;;;;;;4948802;28;20589;-79
2023/02/14 13:20:27;;;;;;;11.80;10.47;;;13.70;95.30;;;;;;4988688;28;20595;-79